sensor_id;sensor_type;location;lat;lon;timestamp;P1;durP1;ratioP1;P2;durP2;ratioP2
17347;SDS011;8791;50.876;4.342;2023-03-05T00:02:04;9.70;;;3.50;;
17347;SDS011;8791;50.876;4.342;2023-03-05T00:04:33;7.20;;;2.90;;
17347;SDS011;8791;50.876;4.342;2023-03-05T00:06:59;9.33;;;3.20;;
17347;SDS011;8791;50.876;4.342;2023-03-05T00:09:26;7.10;;;2.67;;
17347;SDS011;8791;50.876;4.342;2023-03-05T00:11:53;5.00;;;2.73;;
17347;SDS011;8791;50.876;4.342;2023-03-05T00:14:21;8.80;;;2.70;;
17347;SDS011;8791;50.876;4.342;2023-03-05T00:16:48;20.10;;;3.33;;
17347;SDS011;8791;50.876;4.342;2023-03-05T00:19:14;7.03;;;3.17;;
17347;SDS011;8791;50.876;4.342;2023-03-05T00:21:43;7.00;;;2.70;;
17347;SDS011;8791;50.876;4.342;2023-03-05T00:24:10;5.17;;;2.87;;
17347;SDS011;8791;50.876;4.342;2023-03-05T00:26:39;7.87;;;2.80;;
17347;SDS011;8791;50.876;4.342;2023-03-05T00:29:06;4.00;;;3.07;;
17347;SDS011;8791;50.876;4.342;2023-03-05T00:31:34;5.73;;;3.10;;
17347;SDS011;8791;50.876;4.342;2023-03-05T00:34:03;5.83;;;2.90;;
17347;SDS011;8791;50.876;4.342;2023-03-05T00:36:31;12.67;;;3.47;;
17347;SDS011;8791;50.876;4.342;2023-03-05T00:38:59;7.63;;;3.23;;
17347;SDS011;8791;50.876;4.342;2023-03-05T00:41:26;5.77;;;3.07;;
17347;SDS011;8791;50.876;4.342;2023-03-05T00:43:53;8.83;;;3.10;;
17347;SDS011;8791;50.876;4.342;2023-03-05T00:46:20;6.50;;;3.33;;
17347;SDS011;8791;50.876;4.342;2023-03-05T00:48:48;5.27;;;3.23;;
17347;SDS011;8791;50.876;4.342;2023-03-05T00:51:15;6.30;;;3.20;;
17347;SDS011;8791;50.876;4.342;2023-03-05T00:53:42;9.43;;;3.17;;
17347;SDS011;8791;50.876;4.342;2023-03-05T00:56:10;7.40;;;2.93;;
17347;SDS011;8791;50.876;4.342;2023-03-05T00:58:37;9.37;;;3.33;;
17347;SDS011;8791;50.876;4.342;2023-03-05T01:01:05;12.67;;;3.10;;
17347;SDS011;8791;50.876;4.342;2023-03-05T01:03:32;8.07;;;3.37;;
17347;SDS011;8791;50.876;4.342;2023-03-05T01:06:00;11.60;;;3.00;;
17347;SDS011;8791;50.876;4.342;2023-03-05T01:08:30;11.90;;;3.10;;
17347;SDS011;8791;50.876;4.342;2023-03-05T01:10:57;9.33;;;3.60;;
17347;SDS011;8791;50.876;4.342;2023-03-05T01:13:26;6.77;;;2.80;;
17347;SDS011;8791;50.876;4.342;2023-03-05T01:15:53;7.27;;;3.27;;
17347;SDS011;8791;50.876;4.342;2023-03-05T01:18:20;4.43;;;3.50;;
17347;SDS011;8791;50.876;4.342;2023-03-05T01:20:47;8.90;;;2.87;;
17347;SDS011;8791;50.876;4.342;2023-03-05T01:23:14;11.20;;;3.37;;
17347;SDS011;8791;50.876;4.342;2023-03-05T01:25:41;4.90;;;3.13;;
17347;SDS011;8791;50.876;4.342;2023-03-05T01:28:08;5.73;;;3.47;;
17347;SDS011;8791;50.876;4.342;2023-03-05T01:30:37;12.97;;;3.70;;
17347;SDS011;8791;50.876;4.342;2023-03-05T01:33:03;5.93;;;3.53;;
17347;SDS011;8791;50.876;4.342;2023-03-05T01:35:30;7.80;;;3.27;;
17347;SDS011;8791;50.876;4.342;2023-03-05T01:37:57;10.50;;;3.40;;
17347;SDS011;8791;50.876;4.342;2023-03-05T01:40:24;9.93;;;3.77;;
17347;SDS011;8791;50.876;4.342;2023-03-05T01:42:57;7.00;;;3.20;;
17347;SDS011;8791;50.876;4.342;2023-03-05T01:45:25;5.87;;;3.00;;
17347;SDS011;8791;50.876;4.342;2023-03-05T01:47:53;10.63;;;3.27;;
17347;SDS011;8791;50.876;4.342;2023-03-05T01:50:21;4.50;;;3.10;;
17347;SDS011;8791;50.876;4.342;2023-03-05T01:52:52;7.60;;;3.57;;
17347;SDS011;8791;50.876;4.342;2023-03-05T10:33:41;4.67;;;3.30;;
17347;SDS011;8791;50.876;4.342;2023-03-05T10:36:19;6.03;;;3.00;;
17347;SDS011;8791;50.876;4.342;2023-03-05T10:39:01;4.97;;;2.47;;
17347;SDS011;8791;50.876;4.342;2023-03-05T10:41:43;2.67;;;2.27;;
17347;SDS011;8791;50.876;4.342;2023-03-05T10:44:23;4.33;;;2.20;;
17347;SDS011;8791;50.876;4.342;2023-03-05T10:46:58;3.97;;;2.80;;
17347;SDS011;8791;50.876;4.342;2023-03-05T10:49:28;6.57;;;3.20;;
17347;SDS011;8791;50.876;4.342;2023-03-05T10:51:59;6.30;;;3.20;;
17347;SDS011;8791;50.876;4.342;2023-03-05T10:54:33;3.33;;;2.90;;
17347;SDS011;8791;50.876;4.342;2023-03-05T10:57:03;3.07;;;2.77;;
17347;SDS011;8791;50.876;4.342;2023-03-05T10:59:39;3.97;;;3.30;;
17347;SDS011;8791;50.876;4.342;2023-03-05T11:02:10;5.53;;;3.43;;
17347;SDS011;8791;50.876;4.342;2023-03-05T11:04:38;5.53;;;3.40;;
17347;SDS011;8791;50.876;4.342;2023-03-05T11:07:06;5.77;;;3.73;;
17347;SDS011;8791;50.876;4.342;2023-03-05T11:10:02;5.27;;;3.50;;
17347;SDS011;8791;50.876;4.342;2023-03-05T11:12:32;4.87;;;3.37;;
17347;SDS011;8791;50.876;4.342;2023-03-05T11:15:02;4.63;;;3.70;;
17347;SDS011;8791;50.876;4.342;2023-03-05T11:17:34;8.00;;;3.80;;
17347;SDS011;8791;50.876;4.342;2023-03-05T11:23:04;3.60;;;3.30;;
17347;SDS011;8791;50.876;4.342;2023-03-05T11:25:35;5.50;;;3.50;;
17347;SDS011;8791;50.876;4.342;2023-03-05T11:28:21;5.40;;;3.23;;
17347;SDS011;8791;50.876;4.342;2023-03-05T11:30:57;4.97;;;3.83;;
17347;SDS011;8791;50.876;4.342;2023-03-05T11:33:28;3.63;;;2.53;;
17347;SDS011;8791;50.876;4.342;2023-03-05T11:36:09;7.37;;;5.23;;
17347;SDS011;8791;50.876;4.342;2023-03-05T11:38:49;4.37;;;3.97;;
17347;SDS011;8791;50.876;4.342;2023-03-05T11:41:19;7.73;;;6.00;;
17347;SDS011;8791;50.876;4.342;2023-03-05T11:43:51;4.90;;;4.33;;
17347;SDS011;8791;50.876;4.342;2023-03-05T11:46:19;4.23;;;3.33;;
17347;SDS011;8791;50.876;4.342;2023-03-05T11:48:48;4.50;;;4.10;;
17347;SDS011;8791;50.876;4.342;2023-03-05T11:51:18;7.87;;;4.90;;
17347;SDS011;8791;50.876;4.342;2023-03-05T11:53:48;6.13;;;5.43;;
17347;SDS011;8791;50.876;4.342;2023-03-05T11:56:20;6.67;;;5.67;;
17347;SDS011;8791;50.876;4.342;2023-03-05T11:58:50;7.37;;;5.70;;
17347;SDS011;8791;50.876;4.342;2023-03-05T12:01:23;8.53;;;5.83;;
17347;SDS011;8791;50.876;4.342;2023-03-05T12:03:54;10.03;;;5.97;;
17347;SDS011;8791;50.876;4.342;2023-03-05T12:06:26;7.57;;;6.77;;
17347;SDS011;8791;50.876;4.342;2023-03-05T12:08:58;9.73;;;6.73;;
17347;SDS011;8791;50.876;4.342;2023-03-05T12:11:28;17.93;;;7.57;;
17347;SDS011;8791;50.876;4.342;2023-03-05T12:13:58;8.87;;;7.47;;
17347;SDS011;8791;50.876;4.342;2023-03-05T12:16:32;7.47;;;6.77;;
17347;SDS011;8791;50.876;4.342;2023-03-05T12:19:12;10.83;;;7.90;;
17347;SDS011;8791;50.876;4.342;2023-03-05T12:21:55;8.47;;;7.53;;
17347;SDS011;8791;50.876;4.342;2023-03-05T12:24:33;13.23;;;8.63;;
17347;SDS011;8791;50.876;4.342;2023-03-05T12:27:05;14.67;;;9.13;;
17347;SDS011;8791;50.876;4.342;2023-03-05T12:29:40;9.10;;;8.20;;
17347;SDS011;8791;50.876;4.342;2023-03-05T12:35:32;8.13;;;7.43;;
17347;SDS011;8791;50.876;4.342;2023-03-05T12:38:17;6.83;;;6.13;;
17347;SDS011;8791;50.876;4.342;2023-03-05T12:49:50;6.63;;;5.20;;
17347;SDS011;8791;50.876;4.342;2023-03-05T12:52:22;5.90;;;4.50;;
17347;SDS011;8791;50.876;4.342;2023-03-05T12:57:42;5.27;;;2.87;;
17347;SDS011;8791;50.876;4.342;2023-03-05T13:00:12;4.50;;;2.50;;
17347;SDS011;8791;50.876;4.342;2023-03-05T13:02:45;2.60;;;2.33;;
17347;SDS011;8791;50.876;4.342;2023-03-05T13:05:20;1.30;;;1.20;;
17347;SDS011;8791;50.876;4.342;2023-03-05T13:07:51;1.90;;;1.10;;
17347;SDS011;8791;50.876;4.342;2023-03-05T13:10:22;1.70;;;1.10;;
17347;SDS011;8791;50.876;4.342;2023-03-05T13:12:51;1.20;;;1.10;;
17347;SDS011;8791;50.876;4.342;2023-03-05T13:15:21;1.83;;;1.00;;
17347;SDS011;8791;50.876;4.342;2023-03-05T13:17:53;3.03;;;1.20;;
17347;SDS011;8791;50.876;4.342;2023-03-05T13:20:24;2.37;;;1.50;;
17347;SDS011;8791;50.876;4.342;2023-03-05T13:23:03;4.13;;;2.33;;
17347;SDS011;8791;50.876;4.342;2023-03-05T13:25:30;2.37;;;1.20;;
17347;SDS011;8791;50.876;4.342;2023-03-05T13:28:01;2.90;;;1.70;;
17347;SDS011;8791;50.876;4.342;2023-03-05T13:30:28;4.30;;;1.93;;
17347;SDS011;8791;50.876;4.342;2023-03-05T13:32:56;1.83;;;1.10;;
17347;SDS011;8791;50.876;4.342;2023-03-05T13:35:27;2.63;;;1.53;;
17347;SDS011;8791;50.876;4.342;2023-03-05T13:37:54;4.27;;;2.13;;
17347;SDS011;8791;50.876;4.342;2023-03-05T13:40:23;2.63;;;1.73;;
17347;SDS011;8791;50.876;4.342;2023-03-05T13:42:51;1.53;;;1.43;;
17347;SDS011;8791;50.876;4.342;2023-03-05T13:45:20;1.67;;;1.53;;
17347;SDS011;8791;50.876;4.342;2023-03-05T13:47:51;2.50;;;1.53;;
17347;SDS011;8791;50.876;4.342;2023-03-05T13:50:21;1.47;;;1.30;;
17347;SDS011;8791;50.876;4.342;2023-03-05T13:52:50;3.73;;;1.70;;
17347;SDS011;8791;50.876;4.342;2023-03-05T13:55:16;2.03;;;1.83;;
17347;SDS011;8791;50.876;4.342;2023-03-05T13:57:45;3.03;;;1.80;;
17347;SDS011;8791;50.876;4.342;2023-03-05T14:00:25;3.60;;;1.87;;
17347;SDS011;8791;50.876;4.342;2023-03-05T14:02:55;3.53;;;0.90;;
17347;SDS011;8791;50.876;4.342;2023-03-05T14:05:23;1.53;;;1.20;;
17347;SDS011;8791;50.876;4.342;2023-03-05T14:07:50;0.80;;;0.70;;
17347;SDS011;8791;50.876;4.342;2023-03-05T14:10:30;1.30;;;1.20;;
17347;SDS011;8791;50.876;4.342;2023-03-05T14:13:01;2.07;;;1.30;;
17347;SDS011;8791;50.876;4.342;2023-03-05T14:15:30;1.70;;;1.60;;
17347;SDS011;8791;50.876;4.342;2023-03-05T14:18:11;4.37;;;1.77;;
17347;SDS011;8791;50.876;4.342;2023-03-05T14:20:56;2.70;;;1.80;;
17347;SDS011;8791;50.876;4.342;2023-03-05T14:23:32;4.63;;;2.63;;
17347;SDS011;8791;50.876;4.342;2023-03-05T14:26:12;1.87;;;1.63;;
17347;SDS011;8791;50.876;4.342;2023-03-05T14:28:50;6.33;;;4.97;;
17347;SDS011;8791;50.876;4.342;2023-03-05T14:31:18;7.13;;;5.80;;
17347;SDS011;8791;50.876;4.342;2023-03-05T14:33:46;24.07;;;12.40;;
17347;SDS011;8791;50.876;4.342;2023-03-05T14:36:19;26.73;;;12.70;;
17347;SDS011;8791;50.876;4.342;2023-03-05T14:38:47;9.57;;;5.73;;
17347;SDS011;8791;50.876;4.342;2023-03-05T14:41:37;1.63;;;1.13;;
17347;SDS011;8791;50.876;4.342;2023-03-05T14:44:09;10.10;;;5.43;;
17347;SDS011;8791;50.876;4.342;2023-03-05T14:46:38;5.70;;;3.63;;
17347;SDS011;8791;50.876;4.342;2023-03-05T14:49:05;13.50;;;6.30;;
17347;SDS011;8791;50.876;4.342;2023-03-05T14:51:32;14.37;;;5.53;;
17347;SDS011;8791;50.876;4.342;2023-03-05T14:54:03;3.33;;;1.97;;
17347;SDS011;8791;50.876;4.342;2023-03-05T14:56:30;5.27;;;2.00;;
17347;SDS011;8791;50.876;4.342;2023-03-05T14:58:57;3.57;;;2.17;;
17347;SDS011;8791;50.876;4.342;2023-03-05T15:01:25;5.90;;;1.73;;
17347;SDS011;8791;50.876;4.342;2023-03-05T15:03:52;6.23;;;1.60;;
17347;SDS011;8791;50.876;4.342;2023-03-05T15:06:20;2.23;;;1.50;;
17347;SDS011;8791;50.876;4.342;2023-03-05T15:08:52;1.87;;;1.60;;
17347;SDS011;8791;50.876;4.342;2023-03-05T15:11:19;5.13;;;2.00;;
17347;SDS011;8791;50.876;4.342;2023-03-05T15:13:47;4.07;;;1.90;;
17347;SDS011;8791;50.876;4.342;2023-03-05T15:16:15;3.37;;;1.67;;
17347;SDS011;8791;50.876;4.342;2023-03-05T15:18:45;4.90;;;2.20;;
17347;SDS011;8791;50.876;4.342;2023-03-05T15:21:12;3.13;;;2.00;;
17347;SDS011;8791;50.876;4.342;2023-03-05T15:23:40;4.50;;;1.87;;
17347;SDS011;8791;50.876;4.342;2023-03-05T15:26:10;2.77;;;1.93;;
17347;SDS011;8791;50.876;4.342;2023-03-05T15:28:38;6.70;;;4.77;;
17347;SDS011;8791;50.876;4.342;2023-03-05T15:31:06;5.93;;;2.80;;
17347;SDS011;8791;50.876;4.342;2023-03-05T15:33:33;7.30;;;3.53;;
17347;SDS011;8791;50.876;4.342;2023-03-05T15:36:01;6.23;;;3.57;;
17347;SDS011;8791;50.876;4.342;2023-03-05T15:38:28;5.50;;;2.20;;
17347;SDS011;8791;50.876;4.342;2023-03-05T15:40:55;3.63;;;2.07;;
17347;SDS011;8791;50.876;4.342;2023-03-05T15:43:23;7.57;;;2.60;;
17347;SDS011;8791;50.876;4.342;2023-03-05T15:45:50;5.23;;;2.10;;
17347;SDS011;8791;50.876;4.342;2023-03-05T15:48:17;7.23;;;2.40;;
17347;SDS011;8791;50.876;4.342;2023-03-05T15:50:43;7.47;;;2.80;;
17347;SDS011;8791;50.876;4.342;2023-03-05T15:53:12;7.60;;;2.00;;
17347;SDS011;8791;50.876;4.342;2023-03-05T15:55:42;4.93;;;2.60;;
17347;SDS011;8791;50.876;4.342;2023-03-05T15:58:11;2.97;;;1.90;;
17347;SDS011;8791;50.876;4.342;2023-03-05T16:00:40;3.13;;;2.30;;
17347;SDS011;8791;50.876;4.342;2023-03-05T16:03:06;6.10;;;2.73;;
17347;SDS011;8791;50.876;4.342;2023-03-05T16:05:34;9.47;;;3.20;;
17347;SDS011;8791;50.876;4.342;2023-03-05T16:08:01;3.37;;;2.10;;
17347;SDS011;8791;50.876;4.342;2023-03-05T16:10:30;9.13;;;4.80;;
17347;SDS011;8791;50.876;4.342;2023-03-05T16:12:59;4.93;;;2.40;;
17347;SDS011;8791;50.876;4.342;2023-03-05T16:15:28;5.73;;;3.67;;
17347;SDS011;8791;50.876;4.342;2023-03-05T16:17:57;3.43;;;3.13;;
17347;SDS011;8791;50.876;4.342;2023-03-05T16:20:27;5.87;;;4.07;;
17347;SDS011;8791;50.876;4.342;2023-03-05T16:22:54;8.97;;;4.30;;
17347;SDS011;8791;50.876;4.342;2023-03-05T16:25:21;9.03;;;4.93;;
17347;SDS011;8791;50.876;4.342;2023-03-05T16:27:49;6.20;;;4.90;;
17347;SDS011;8791;50.876;4.342;2023-03-05T16:30:16;8.60;;;4.70;;
17347;SDS011;8791;50.876;4.342;2023-03-05T16:32:43;13.83;;;5.90;;
17347;SDS011;8791;50.876;4.342;2023-03-05T16:35:10;9.30;;;4.97;;
17347;SDS011;8791;50.876;4.342;2023-03-05T16:37:37;13.00;;;5.53;;
17347;SDS011;8791;50.876;4.342;2023-03-05T16:40:05;13.20;;;6.33;;
17347;SDS011;8791;50.876;4.342;2023-03-05T16:42:33;14.30;;;6.07;;
17347;SDS011;8791;50.876;4.342;2023-03-05T16:45:02;10.37;;;5.70;;
17347;SDS011;8791;50.876;4.342;2023-03-05T16:47:30;9.13;;;6.10;;
17347;SDS011;8791;50.876;4.342;2023-03-05T16:49:57;13.87;;;6.20;;
17347;SDS011;8791;50.876;4.342;2023-03-05T16:52:25;14.90;;;5.90;;
17347;SDS011;8791;50.876;4.342;2023-03-05T16:54:52;8.73;;;5.70;;
17347;SDS011;8791;50.876;4.342;2023-03-05T16:57:19;12.77;;;6.20;;
17347;SDS011;8791;50.876;4.342;2023-03-05T16:59:48;9.13;;;5.50;;
17347;SDS011;8791;50.876;4.342;2023-03-05T17:02:16;9.53;;;6.37;;
17347;SDS011;8791;50.876;4.342;2023-03-05T17:04:43;8.40;;;5.57;;
17347;SDS011;8791;50.876;4.342;2023-03-05T17:07:10;8.27;;;5.10;;
17347;SDS011;8791;50.876;4.342;2023-03-05T17:09:37;9.77;;;6.37;;
17347;SDS011;8791;50.876;4.342;2023-03-05T17:12:05;11.30;;;6.77;;
17347;SDS011;8791;50.876;4.342;2023-03-05T17:14:32;15.37;;;7.73;;
17347;SDS011;8791;50.876;4.342;2023-03-05T17:16:59;12.90;;;7.10;;
17347;SDS011;8791;50.876;4.342;2023-03-05T17:19:27;7.57;;;6.07;;
17347;SDS011;8791;50.876;4.342;2023-03-05T17:21:55;10.53;;;7.07;;
17347;SDS011;8791;50.876;4.342;2023-03-05T17:24:22;12.90;;;7.07;;
17347;SDS011;8791;50.876;4.342;2023-03-05T17:26:49;13.53;;;6.80;;
17347;SDS011;8791;50.876;4.342;2023-03-05T17:29:16;8.17;;;6.97;;
17347;SDS011;8791;50.876;4.342;2023-03-05T17:31:44;19.53;;;8.23;;
17347;SDS011;8791;50.876;4.342;2023-03-05T17:34:11;12.47;;;7.07;;
17347;SDS011;8791;50.876;4.342;2023-03-05T17:36:39;10.30;;;6.03;;
17347;SDS011;8791;50.876;4.342;2023-03-05T17:39:06;11.63;;;6.60;;
17347;SDS011;8791;50.876;4.342;2023-03-05T17:41:33;10.10;;;6.63;;
17347;SDS011;8791;50.876;4.342;2023-03-05T17:44:00;13.07;;;6.30;;
17347;SDS011;8791;50.876;4.342;2023-03-05T17:46:27;8.07;;;5.87;;
17347;SDS011;8791;50.876;4.342;2023-03-05T17:48:54;14.50;;;6.10;;
17347;SDS011;8791;50.876;4.342;2023-03-05T17:51:21;8.90;;;6.27;;
17347;SDS011;8791;50.876;4.342;2023-03-05T17:53:49;7.13;;;6.40;;
17347;SDS011;8791;50.876;4.342;2023-03-05T17:56:16;10.10;;;5.90;;
17347;SDS011;8791;50.876;4.342;2023-03-05T17:58:44;14.10;;;6.80;;
17347;SDS011;8791;50.876;4.342;2023-03-05T18:01:11;6.50;;;5.87;;
17347;SDS011;8791;50.876;4.342;2023-03-05T18:03:46;8.57;;;5.40;;
17347;SDS011;8791;50.876;4.342;2023-03-05T18:06:13;9.90;;;6.10;;
17347;SDS011;8791;50.876;4.342;2023-03-05T18:08:39;6.87;;;6.17;;
17347;SDS011;8791;50.876;4.342;2023-03-05T18:11:08;9.10;;;6.27;;
17347;SDS011;8791;50.876;4.342;2023-03-05T18:13:34;12.67;;;6.60;;
17347;SDS011;8791;50.876;4.342;2023-03-05T18:16:01;12.07;;;6.97;;
17347;SDS011;8791;50.876;4.342;2023-03-05T18:18:28;14.23;;;7.80;;
17347;SDS011;8791;50.876;4.342;2023-03-05T18:20:55;10.53;;;6.80;;
17347;SDS011;8791;50.876;4.342;2023-03-05T18:23:22;10.37;;;7.10;;
17347;SDS011;8791;50.876;4.342;2023-03-05T18:25:49;11.57;;;7.13;;
17347;SDS011;8791;50.876;4.342;2023-03-05T18:28:17;11.57;;;7.00;;
17347;SDS011;8791;50.876;4.342;2023-03-05T18:30:44;12.37;;;7.43;;
17347;SDS011;8791;50.876;4.342;2023-03-05T18:33:13;10.90;;;6.70;;
17347;SDS011;8791;50.876;4.342;2023-03-05T18:35:43;11.23;;;6.90;;
17347;SDS011;8791;50.876;4.342;2023-03-05T18:38:10;12.37;;;6.83;;
17347;SDS011;8791;50.876;4.342;2023-03-05T18:40:38;16.50;;;7.50;;
17347;SDS011;8791;50.876;4.342;2023-03-05T18:43:05;11.27;;;7.90;;
17347;SDS011;8791;50.876;4.342;2023-03-05T18:45:33;14.00;;;7.70;;
17347;SDS011;8791;50.876;4.342;2023-03-05T18:48:00;13.97;;;7.40;;
17347;SDS011;8791;50.876;4.342;2023-03-05T18:50:27;17.87;;;7.97;;
17347;SDS011;8791;50.876;4.342;2023-03-05T18:52:54;10.57;;;7.87;;
17347;SDS011;8791;50.876;4.342;2023-03-05T18:55:22;14.43;;;8.07;;
17347;SDS011;8791;50.876;4.342;2023-03-05T18:57:50;10.77;;;7.07;;
17347;SDS011;8791;50.876;4.342;2023-03-05T19:00:17;16.70;;;8.17;;
17347;SDS011;8791;50.876;4.342;2023-03-05T19:02:47;18.07;;;8.10;;
17347;SDS011;8791;50.876;4.342;2023-03-05T19:05:14;14.63;;;8.63;;
17347;SDS011;8791;50.876;4.342;2023-03-05T19:07:42;14.33;;;9.97;;
17347;SDS011;8791;50.876;4.342;2023-03-05T19:10:09;13.47;;;9.17;;
17347;SDS011;8791;50.876;4.342;2023-03-05T19:12:38;16.83;;;8.80;;
17347;SDS011;8791;50.876;4.342;2023-03-05T19:15:13;16.70;;;8.73;;
17347;SDS011;8791;50.876;4.342;2023-03-05T19:17:41;13.17;;;9.10;;
17347;SDS011;8791;50.876;4.342;2023-03-05T19:20:10;16.70;;;8.40;;
17347;SDS011;8791;50.876;4.342;2023-03-05T19:22:39;14.43;;;8.77;;
17347;SDS011;8791;50.876;4.342;2023-03-05T19:25:07;20.00;;;9.37;;
17347;SDS011;8791;50.876;4.342;2023-03-05T19:27:35;15.53;;;9.10;;
17347;SDS011;8791;50.876;4.342;2023-03-05T19:30:03;23.43;;;11.00;;
17347;SDS011;8791;50.876;4.342;2023-03-05T19:32:30;15.27;;;9.70;;
17347;SDS011;8791;50.876;4.342;2023-03-05T19:34:58;25.03;;;12.60;;
17347;SDS011;8791;50.876;4.342;2023-03-05T19:37:26;22.13;;;11.90;;
17347;SDS011;8791;50.876;4.342;2023-03-05T19:39:53;24.10;;;12.97;;
17347;SDS011;8791;50.876;4.342;2023-03-05T19:42:20;16.07;;;10.00;;
17347;SDS011;8791;50.876;4.342;2023-03-05T19:44:46;21.27;;;11.40;;
17347;SDS011;8791;50.876;4.342;2023-03-05T19:47:13;23.50;;;11.97;;
17347;SDS011;8791;50.876;4.342;2023-03-05T19:49:40;37.13;;;14.60;;
17347;SDS011;8791;50.876;4.342;2023-03-05T19:52:07;30.00;;;13.70;;
17347;SDS011;8791;50.876;4.342;2023-03-05T19:54:35;19.57;;;11.77;;
17347;SDS011;8791;50.876;4.342;2023-03-05T19:57:02;29.30;;;13.17;;
17347;SDS011;8791;50.876;4.342;2023-03-05T19:59:29;17.30;;;9.90;;
17347;SDS011;8791;50.876;4.342;2023-03-05T20:01:56;20.20;;;11.63;;
17347;SDS011;8791;50.876;4.342;2023-03-05T20:04:23;30.50;;;13.17;;
17347;SDS011;8791;50.876;4.342;2023-03-05T20:06:51;22.60;;;10.80;;
17347;SDS011;8791;50.876;4.342;2023-03-05T20:09:18;25.93;;;12.87;;
17347;SDS011;8791;50.876;4.342;2023-03-05T20:11:46;26.47;;;12.60;;
17347;SDS011;8791;50.876;4.342;2023-03-05T20:14:14;26.90;;;11.97;;
17347;SDS011;8791;50.876;4.342;2023-03-05T20:16:41;22.73;;;11.57;;
17347;SDS011;8791;50.876;4.342;2023-03-05T20:19:09;17.90;;;11.67;;
17347;SDS011;8791;50.876;4.342;2023-03-05T20:21:44;20.90;;;11.70;;
17347;SDS011;8791;50.876;4.342;2023-03-05T20:24:11;21.53;;;11.87;;
17347;SDS011;8791;50.876;4.342;2023-03-05T20:26:40;21.47;;;11.43;;
17347;SDS011;8791;50.876;4.342;2023-03-05T20:29:10;22.43;;;12.00;;
17347;SDS011;8791;50.876;4.342;2023-03-05T20:31:38;15.77;;;10.90;;
17347;SDS011;8791;50.876;4.342;2023-03-05T20:34:06;20.90;;;11.07;;
17347;SDS011;8791;50.876;4.342;2023-03-05T20:36:35;18.57;;;12.03;;
17347;SDS011;8791;50.876;4.342;2023-03-05T20:39:02;17.57;;;11.47;;
17347;SDS011;8791;50.876;4.342;2023-03-05T20:41:30;22.07;;;12.67;;
17347;SDS011;8791;50.876;4.342;2023-03-05T20:43:58;19.03;;;12.03;;
17347;SDS011;8791;50.876;4.342;2023-03-05T20:46:27;21.27;;;12.77;;
17347;SDS011;8791;50.876;4.342;2023-03-05T20:48:56;21.53;;;12.53;;
17347;SDS011;8791;50.876;4.342;2023-03-05T20:51:27;15.27;;;11.07;;
17347;SDS011;8791;50.876;4.342;2023-03-05T20:53:57;24.93;;;12.67;;
17347;SDS011;8791;50.876;4.342;2023-03-05T20:56:27;25.93;;;11.87;;
17347;SDS011;8791;50.876;4.342;2023-03-05T20:58:56;21.77;;;12.70;;
17347;SDS011;8791;50.876;4.342;2023-03-05T21:01:24;17.70;;;11.63;;
17347;SDS011;8791;50.876;4.342;2023-03-05T21:03:53;19.23;;;11.97;;
17347;SDS011;8791;50.876;4.342;2023-03-05T21:06:21;22.73;;;13.07;;
17347;SDS011;8791;50.876;4.342;2023-03-05T21:08:48;23.67;;;13.23;;
17347;SDS011;8791;50.876;4.342;2023-03-05T21:11:14;23.73;;;14.03;;
17347;SDS011;8791;50.876;4.342;2023-03-05T21:13:41;23.43;;;13.87;;
17347;SDS011;8791;50.876;4.342;2023-03-05T21:16:09;27.63;;;16.07;;
17347;SDS011;8791;50.876;4.342;2023-03-05T21:18:40;26.63;;;15.13;;
17347;SDS011;8791;50.876;4.342;2023-03-05T21:21:07;32.70;;;16.63;;
17347;SDS011;8791;50.876;4.342;2023-03-05T21:23:34;34.13;;;16.57;;
17347;SDS011;8791;50.876;4.342;2023-03-05T21:26:01;32.97;;;17.23;;
17347;SDS011;8791;50.876;4.342;2023-03-05T21:28:29;30.73;;;17.67;;
17347;SDS011;8791;50.876;4.342;2023-03-05T21:30:56;39.23;;;18.60;;
17347;SDS011;8791;50.876;4.342;2023-03-05T21:33:23;35.10;;;19.20;;
17347;SDS011;8791;50.876;4.342;2023-03-05T21:35:53;33.03;;;19.43;;
17347;SDS011;8791;50.876;4.342;2023-03-05T21:38:22;36.73;;;18.43;;
17347;SDS011;8791;50.876;4.342;2023-03-05T21:40:50;38.87;;;20.37;;
17347;SDS011;8791;50.876;4.342;2023-03-05T21:43:19;39.10;;;19.70;;
17347;SDS011;8791;50.876;4.342;2023-03-05T21:45:48;40.20;;;19.60;;
17347;SDS011;8791;50.876;4.342;2023-03-05T21:48:17;38.33;;;19.97;;
17347;SDS011;8791;50.876;4.342;2023-03-05T21:50:45;42.83;;;20.30;;
17347;SDS011;8791;50.876;4.342;2023-03-05T21:53:14;43.43;;;19.37;;
17347;SDS011;8791;50.876;4.342;2023-03-05T21:55:42;37.87;;;19.30;;
17347;SDS011;8791;50.876;4.342;2023-03-05T21:58:23;39.17;;;20.23;;
17347;SDS011;8791;50.876;4.342;2023-03-05T22:00:49;39.27;;;21.23;;
17347;SDS011;8791;50.876;4.342;2023-03-05T22:03:16;38.43;;;20.40;;
17347;SDS011;8791;50.876;4.342;2023-03-05T22:05:43;40.33;;;20.37;;
17347;SDS011;8791;50.876;4.342;2023-03-05T22:08:10;39.07;;;20.33;;
17347;SDS011;8791;50.876;4.342;2023-03-05T22:10:39;39.10;;;21.03;;
17347;SDS011;8791;50.876;4.342;2023-03-05T22:13:07;35.33;;;20.87;;
17347;SDS011;8791;50.876;4.342;2023-03-05T22:15:41;44.80;;;22.00;;
17347;SDS011;8791;50.876;4.342;2023-03-05T22:18:09;38.63;;;21.20;;
17347;SDS011;8791;50.876;4.342;2023-03-05T22:20:36;40.43;;;21.30;;
17347;SDS011;8791;50.876;4.342;2023-03-05T22:23:03;43.77;;;20.57;;
17347;SDS011;8791;50.876;4.342;2023-03-05T22:25:30;43.13;;;21.40;;
17347;SDS011;8791;50.876;4.342;2023-03-05T22:27:59;39.80;;;21.83;;
17347;SDS011;8791;50.876;4.342;2023-03-05T22:30:25;41.97;;;21.30;;
17347;SDS011;8791;50.876;4.342;2023-03-05T22:32:52;43.77;;;21.63;;
17347;SDS011;8791;50.876;4.342;2023-03-05T22:35:19;44.07;;;23.27;;
17347;SDS011;8791;50.876;4.342;2023-03-05T22:37:46;40.13;;;22.30;;
17347;SDS011;8791;50.876;4.342;2023-03-05T22:40:14;42.27;;;21.20;;
17347;SDS011;8791;50.876;4.342;2023-03-05T22:42:42;44.07;;;21.63;;
17347;SDS011;8791;50.876;4.342;2023-03-05T22:45:11;43.53;;;22.50;;
17347;SDS011;8791;50.876;4.342;2023-03-05T22:47:39;39.63;;;21.93;;
17347;SDS011;8791;50.876;4.342;2023-03-05T22:50:06;41.53;;;21.63;;
17347;SDS011;8791;50.876;4.342;2023-03-05T22:52:33;40.57;;;21.87;;
17347;SDS011;8791;50.876;4.342;2023-03-05T22:55:00;40.33;;;22.97;;
17347;SDS011;8791;50.876;4.342;2023-03-05T22:57:28;38.47;;;21.13;;
17347;SDS011;8791;50.876;4.342;2023-03-05T22:59:56;45.80;;;23.30;;
17347;SDS011;8791;50.876;4.342;2023-03-05T23:02:25;48.07;;;21.97;;
17347;SDS011;8791;50.876;4.342;2023-03-05T23:04:51;43.97;;;21.60;;
17347;SDS011;8791;50.876;4.342;2023-03-05T23:07:21;41.47;;;22.57;;
17347;SDS011;8791;50.876;4.342;2023-03-05T23:09:51;38.43;;;21.23;;
17347;SDS011;8791;50.876;4.342;2023-03-05T23:12:19;40.47;;;21.97;;
17347;SDS011;8791;50.876;4.342;2023-03-05T23:14:46;42.50;;;22.20;;
17347;SDS011;8791;50.876;4.342;2023-03-05T23:17:13;40.00;;;21.53;;
17347;SDS011;8791;50.876;4.342;2023-03-05T23:19:41;46.80;;;23.80;;
17347;SDS011;8791;50.876;4.342;2023-03-05T23:22:08;41.07;;;22.20;;
17347;SDS011;8791;50.876;4.342;2023-03-05T23:24:36;43.57;;;23.30;;
17347;SDS011;8791;50.876;4.342;2023-03-05T23:27:04;40.27;;;22.57;;
17347;SDS011;8791;50.876;4.342;2023-03-05T23:29:33;38.97;;;22.43;;
17347;SDS011;8791;50.876;4.342;2023-03-05T23:32:12;41.83;;;23.17;;
17347;SDS011;8791;50.876;4.342;2023-03-05T23:34:39;48.80;;;23.10;;
17347;SDS011;8791;50.876;4.342;2023-03-05T23:37:07;43.57;;;22.57;;
17347;SDS011;8791;50.876;4.342;2023-03-05T23:39:34;39.67;;;22.20;;
17347;SDS011;8791;50.876;4.342;2023-03-05T23:42:00;38.40;;;22.23;;
17347;SDS011;8791;50.876;4.342;2023-03-05T23:44:28;41.60;;;22.47;;
17347;SDS011;8791;50.876;4.342;2023-03-05T23:46:55;41.00;;;22.53;;
17347;SDS011;8791;50.876;4.342;2023-03-05T23:49:21;43.40;;;22.10;;
17347;SDS011;8791;50.876;4.342;2023-03-05T23:51:48;42.93;;;22.43;;
17347;SDS011;8791;50.876;4.342;2023-03-05T23:54:16;42.27;;;22.17;;
17347;SDS011;8791;50.876;4.342;2023-03-05T23:56:43;42.87;;;22.80;;
17347;SDS011;8791;50.876;4.342;2023-03-05T23:59:10;43.70;;;21.87;;
